Time;durP1;ratioP1;P1;durP2;ratioP2;P2;SDS_P1;SDS_P2;PMS_P1;PMS_P2;Temp;Humidity;BMP_temperature;BMP_pressure;BME280_temperature;BME280_humidity;BME280_pressure;Samples;Min_cycle;Max_cycle;Signal;HPM_P1;HPM_P2
2022/03/06 00:00:17;;;;;;;0.43;0.43;;;2.60;99.90;;;;;;4434597;32;20108;-64
2022/03/06 00:02:43;;;;;;;4.18;1.83;;;2.70;99.90;;;;;;4438779;32;20116;-64
2022/03/06 00:05:09;;;;;;;0.47;0.47;;;2.70;99.90;;;;;;4425541;32;20423;-64
2022/03/06 00:07:35;;;;;;;0.40;0.40;;;2.70;99.90;;;;;;4428424;32;20078;-63
2022/03/06 00:10:01;;;;;;;4.72;1.25;;;2.80;99.90;;;;;;4443593;32;20513;-64
2022/03/06 00:12:26;;;;;;;7.32;1.67;;;2.70;99.90;;;;;;4429623;32;20070;-64
2022/03/06 00:14:52;;;;;;;0.62;0.62;;;2.50;99.90;;;;;;4442579;32;20631;-64
2022/03/06 00:17:17;;;;;;;0.57;0.57;;;2.50;99.90;;;;;;4441919;32;20105;-64
2022/03/06 00:19:43;;;;;;;0.68;0.68;;;2.60;99.90;;;;;;4433701;32;20061;-64
2022/03/06 00:22:08;;;;;;;0.60;0.60;;;2.70;99.90;;;;;;4437453;32;20086;-64
2022/03/06 00:24:34;;;;;;;1.15;1.10;;;2.80;99.90;;;;;;4427377;32;20135;-64
2022/03/06 00:26:59;;;;;;;0.50;0.50;;;2.80;99.90;;;;;;4427327;32;20061;-64
2022/03/06 00:29:25;;;;;;;0.77;0.77;;;2.90;99.90;;;;;;4441277;32;20089;-64
2022/03/06 00:31:51;;;;;;;0.77;0.77;;;2.80;99.90;;;;;;4432194;32;20420;-63
2022/03/06 00:34:16;;;;;;;0.68;0.68;;;2.70;99.90;;;;;;4434146;32;20069;-64
2022/03/06 00:36:42;;;;;;;1.42;0.90;;;2.80;99.90;;;;;;4434189;32;20073;-64
2022/03/06 00:39:07;;;;;;;3.58;1.12;;;2.80;99.90;;;;;;4428275;32;20410;-64
2022/03/06 00:41:33;;;;;;;1.00;1.00;;;2.70;99.90;;;;;;4438751;32;20065;-64
2022/03/06 00:43:59;;;;;;;11.38;1.58;;;2.60;99.90;;;;;;4442431;32;20442;-64
2022/03/06 00:46:24;;;;;;;0.55;0.55;;;2.40;99.90;;;;;;4423900;32;20073;-64
2022/03/06 00:48:50;;;;;;;1.85;1.48;;;2.30;99.90;;;;;;4427471;32;20073;-65
2022/03/06 00:51:16;;;;;;;0.57;0.57;;;2.40;99.90;;;;;;4442577;32;20065;-64
2022/03/06 00:53:42;;;;;;;1.50;0.98;;;2.40;99.90;;;;;;4428525;32;20494;-64
2022/03/06 00:56:09;;;;;;;4.75;1.50;;;2.40;99.90;;;;;;4431753;32;20069;-64
2022/03/06 00:58:35;;;;;;;0.93;0.93;;;2.40;99.90;;;;;;4443118;32;20539;-64
2022/03/06 01:01:01;;;;;;;1.30;0.98;;;2.30;99.90;;;;;;4433224;32;20053;-64
2022/03/06 01:03:26;;;;;;;0.60;0.60;;;2.40;99.90;;;;;;4442419;32;20180;-63
2022/03/06 01:05:52;;;;;;;1.35;0.93;;;2.60;99.90;;;;;;4437281;32;20080;-63
2022/03/06 01:08:17;;;;;;;1.60;0.95;;;2.60;99.90;;;;;;4438909;32;20065;-64
2022/03/06 01:10:46;;;;;;;0.77;0.77;;;2.40;99.90;;;;;;4438892;32;20410;-64
2022/03/06 01:13:12;;;;;;;0.88;0.88;;;2.40;99.90;;;;;;4436172;32;20102;-64
2022/03/06 01:15:38;;;;;;;0.57;0.57;;;2.40;99.90;;;;;;4426543;32;20655;-64
2022/03/06 01:18:06;;;;;;;1.23;1.12;;;2.40;99.90;;;;;;4439659;32;20072;-64
2022/03/06 01:20:33;;;;;;;2.55;0.98;;;2.40;99.90;;;;;;4428363;32;20093;-64
2022/03/06 01:22:58;;;;;;;0.60;0.60;;;2.40;99.90;;;;;;4442991;32;20131;-64
2022/03/06 01:25:24;;;;;;;0.50;0.50;;;2.20;99.90;;;;;;4444176;32;20636;-64
2022/03/06 01:27:49;;;;;;;0.60;0.60;;;2.30;99.90;;;;;;4435162;32;20057;-64
2022/03/06 01:30:15;;;;;;;0.50;0.50;;;2.30;99.90;;;;;;4433631;32;20073;-64
2022/03/06 01:32:41;;;;;;;1.33;1.23;;;2.20;99.90;;;;;;4434211;32;20093;-64
2022/03/06 01:35:07;;;;;;;0.73;0.73;;;2.30;99.90;;;;;;4417321;32;20590;-64
2022/03/06 01:37:33;;;;;;;0.80;0.80;;;2.40;99.90;;;;;;4441628;32;20565;-64
2022/03/06 01:39:58;;;;;;;0.50;0.50;;;2.40;99.90;;;;;;4440137;32;20057;-64
2022/03/06 01:42:24;;;;;;;0.50;0.50;;;2.30;99.90;;;;;;4428227;32;20446;-64
2022/03/06 01:44:50;;;;;;;1.27;1.10;;;2.40;99.90;;;;;;4428686;32;20072;-64
2022/03/06 01:47:40;;;;;;;0.88;0.88;;;2.40;99.90;;;;;;4427713;32;20068;-64
2022/03/06 01:50:08;;;;;;;0.52;0.52;;;2.30;99.90;;;;;;4426329;32;20530;-64
2022/03/06 01:52:33;;;;;;;0.62;0.62;;;2.40;99.90;;;;;;4428484;32;20097;-64
2022/03/06 01:54:59;;;;;;;0.50;0.50;;;2.40;99.90;;;;;;4425857;32;20556;-64
2022/03/06 01:57:25;;;;;;;1.12;0.70;;;2.40;99.90;;;;;;4427580;32;20064;-64
2022/03/06 01:59:51;;;;;;;0.40;0.40;;;2.40;99.90;;;;;;4441338;32;20054;-64
2022/03/06 02:02:18;;;;;;;0.65;0.65;;;2.30;99.90;;;;;;4433171;32;20090;-63
2022/03/06 02:04:44;;;;;;;0.50;0.50;;;2.30;99.90;;;;;;4440467;32;20113;-64
2022/03/06 02:07:09;;;;;;;0.82;0.82;;;2.20;99.90;;;;;;4419185;32;20053;-64
2022/03/06 02:09:35;;;;;;;0.77;0.77;;;2.30;99.90;;;;;;4434790;32;20076;-64
2022/03/06 02:12:32;;;;;;;0.50;0.50;;;2.30;99.90;;;;;;4424540;32;20064;-64
2022/03/06 02:14:46;;;;;;;3.10;1.42;;;2.20;99.90;;;;;;4421145;32;20499;-64
2022/03/06 02:17:12;;;;;;;0.85;0.85;;;2.30;99.90;;;;;;4440802;32;20069;-64
2022/03/06 02:20:06;;;;;;;0.65;0.65;;;2.40;99.90;;;;;;4442038;32;20072;-63
2022/03/06 02:22:34;;;;;;;0.50;0.50;;;2.40;99.90;;;;;;4430793;32;20060;-62
2022/03/06 02:25:02;;;;;;;0.80;0.80;;;2.30;99.90;;;;;;4436005;32;20072;-63
2022/03/06 02:27:28;;;;;;;0.60;0.60;;;2.40;99.90;;;;;;4441000;32;20080;-64
2022/03/06 02:29:53;;;;;;;0.40;0.40;;;2.50;99.90;;;;;;4435043;32;20127;-63
2022/03/06 02:32:21;;;;;;;0.77;0.77;;;2.40;99.90;;;;;;4433896;32;20060;-63
2022/03/06 02:34:48;;;;;;;0.40;0.40;;;2.30;99.90;;;;;;4416922;32;20092;-63
2022/03/06 02:37:17;;;;;;;0.50;0.50;;;2.30;99.90;;;;;;4435619;32;20579;-63
2022/03/06 02:39:44;;;;;;;0.50;0.50;;;2.30;99.90;;;;;;4414345;32;20123;-63
2022/03/06 02:42:10;;;;;;;0.85;0.85;;;2.20;99.90;;;;;;4434237;32;20070;-62
2022/03/06 02:44:36;;;;;;;0.50;0.50;;;2.30;99.90;;;;;;4434328;32;20089;-63
2022/03/06 02:47:03;;;;;;;0.60;0.60;;;2.20;99.90;;;;;;4432765;32;20147;-63
2022/03/06 02:49:29;;;;;;;0.75;0.75;;;2.30;99.90;;;;;;4438598;32;20105;-63
2022/03/06 02:51:54;;;;;;;1.45;0.95;;;2.40;99.90;;;;;;4434767;32;20125;-64
2022/03/06 02:54:21;;;;;;;10.45;0.95;;;2.50;99.90;;;;;;4442293;32;20060;-63
2022/03/06 02:56:47;;;;;;;0.70;0.70;;;2.40;99.90;;;;;;4435878;32;20121;-63
2022/03/06 02:59:13;;;;;;;0.98;0.98;;;2.30;99.90;;;;;;4441764;32;20053;-63
2022/03/06 03:01:41;;;;;;;0.88;0.88;;;2.30;99.90;;;;;;4420632;32;20479;-63
2022/03/06 03:04:09;;;;;;;1.92;1.75;;;2.30;99.90;;;;;;4443587;32;20144;-63
2022/03/06 03:06:35;;;;;;;0.37;0.37;;;2.20;99.90;;;;;;4434727;32;20506;-64
2022/03/06 03:09:03;;;;;;;2.05;1.42;;;2.30;99.90;;;;;;4424255;32;20431;-63
2022/03/06 03:11:31;;;;;;;0.82;0.82;;;2.20;99.90;;;;;;4440889;32;20080;-63
2022/03/06 03:13:57;;;;;;;0.70;0.70;;;2.10;99.90;;;;;;4441648;32;20077;-63
2022/03/06 03:16:22;;;;;;;3.40;1.23;;;2.10;99.90;;;;;;4432814;32;20430;-63
2022/03/06 03:18:48;;;;;;;0.95;0.93;;;2.20;99.90;;;;;;4422701;32;20093;-63
2022/03/06 03:21:13;;;;;;;0.73;0.73;;;2.10;99.90;;;;;;4436501;32;20068;-63
2022/03/06 03:23:39;;;;;;;0.88;0.82;;;2.00;99.90;;;;;;4434582;32;20497;-63
2022/03/06 03:26:04;;;;;;;0.57;0.57;;;2.00;99.90;;;;;;4431782;32;20349;-63
2022/03/06 03:28:30;;;;;;;0.50;0.50;;;1.90;99.90;;;;;;4442829;32;20439;-63
2022/03/06 03:30:55;;;;;;;0.60;0.60;;;2.00;99.90;;;;;;4443988;32;20081;-63
2022/03/06 03:33:21;;;;;;;0.50;0.50;;;2.10;99.90;;;;;;4444137;32;20516;-63
2022/03/06 03:35:46;;;;;;;0.50;0.50;;;2.10;99.90;;;;;;4441576;32;20076;-63
2022/03/06 03:38:11;;;;;;;0.82;0.82;;;2.10;99.90;;;;;;4441642;32;20057;-63
2022/03/06 03:40:37;;;;;;;0.82;0.82;;;2.10;99.90;;;;;;4442608;32;20073;-63
2022/03/06 03:43:02;;;;;;;0.85;0.85;;;2.10;99.90;;;;;;4444715;32;20439;-63
2022/03/06 03:45:28;;;;;;;0.70;0.70;;;2.00;99.90;;;;;;4439176;32;20069;-63
2022/03/06 03:47:53;;;;;;;0.70;0.70;;;2.10;99.90;;;;;;4443623;32;20053;-63
2022/03/06 03:50:19;;;;;;;0.98;0.98;;;2.20;99.90;;;;;;4428355;32;20069;-63
2022/03/06 03:52:44;;;;;;;0.43;0.43;;;2.20;99.90;;;;;;4438016;32;20146;-63
2022/03/06 03:55:10;;;;;;;0.47;0.47;;;2.30;99.90;;;;;;4441431;32;20069;-63
2022/03/06 03:57:35;;;;;;;0.60;0.60;;;2.40;99.90;;;;;;4433247;32;20093;-63
2022/03/06 04:00:02;;;;;;;0.75;0.75;;;2.50;99.90;;;;;;4435956;32;20078;-62
2022/03/06 04:02:27;;;;;;;1.73;0.77;;;2.40;99.90;;;;;;4428679;32;20088;-63
2022/03/06 04:04:53;;;;;;;2.33;1.30;;;2.40;99.90;;;;;;4430832;32;20073;-63
2022/03/06 04:07:19;;;;;;;0.40;0.40;;;2.40;99.90;;;;;;4439634;32;20069;-64
2022/03/06 04:09:44;;;;;;;2.17;0.82;;;2.40;99.90;;;;;;4443925;32;20551;-64
2022/03/06 04:12:10;;;;;;;0.40;0.40;;;2.50;99.90;;;;;;4439871;32;20068;-64
2022/03/06 04:14:35;;;;;;;0.47;0.47;;;2.50;99.90;;;;;;4425029;32;20073;-64
2022/03/06 04:17:00;;;;;;;0.47;0.47;;;2.50;99.90;;;;;;4441996;32;20517;-64
2022/03/06 04:19:26;;;;;;;0.60;0.60;;;2.40;99.90;;;;;;4442699;32;20086;-64
2022/03/06 04:21:52;;;;;;;0.62;0.62;;;2.20;99.90;;;;;;4435500;32;20080;-64
2022/03/06 04:24:17;;;;;;;1.27;1.17;;;2.20;99.90;;;;;;4435173;32;20088;-64
2022/03/06 04:26:43;;;;;;;6.87;1.27;;;2.30;99.90;;;;;;4435218;32;20065;-64
2022/03/06 04:29:08;;;;;;;0.98;0.90;;;2.30;99.90;;;;;;4441110;32;20495;-64
2022/03/06 04:31:34;;;;;;;0.50;0.50;;;2.50;99.90;;;;;;4437281;32;20060;-64
2022/03/06 04:34:00;;;;;;;0.50;0.50;;;2.40;99.90;;;;;;4443067;32;20096;-64
2022/03/06 04:36:25;;;;;;;0.30;0.30;;;2.40;99.90;;;;;;4445449;32;20085;-64
2022/03/06 04:38:51;;;;;;;0.62;0.62;;;2.30;99.90;;;;;;4443885;32;20069;-64
2022/03/06 04:41:16;;;;;;;0.30;0.30;;;2.30;99.90;;;;;;4450376;32;20065;-64
2022/03/06 04:43:43;;;;;;;0.77;0.77;;;2.20;99.90;;;;;;4443473;32;20154;-64
2022/03/06 04:46:08;;;;;;;1.48;1.05;;;2.30;99.90;;;;;;4427913;32;20073;-64
2022/03/06 04:48:34;;;;;;;0.68;0.68;;;2.40;99.90;;;;;;4442349;32;20137;-64
2022/03/06 04:50:59;;;;;;;0.47;0.47;;;2.40;99.90;;;;;;4441705;32;20056;-64
2022/03/06 04:53:25;;;;;;;1.55;0.75;;;2.30;99.90;;;;;;4428384;32;20103;-63
2022/03/06 04:55:51;;;;;;;0.50;0.50;;;2.20;99.90;;;;;;4441828;32;20112;-64
2022/03/06 04:58:16;;;;;;;0.50;0.50;;;2.20;99.90;;;;;;4443765;32;20077;-64
2022/03/06 05:00:42;;;;;;;0.50;0.50;;;2.30;99.90;;;;;;4434624;32;20057;-64
2022/03/06 05:03:07;;;;;;;0.50;0.47;;;2.30;99.90;;;;;;4425916;32;20076;-63
2022/03/06 05:05:32;;;;;;;0.32;0.32;;;2.20;99.90;;;;;;4441312;32;20446;-64
2022/03/06 05:07:58;;;;;;;0.60;0.60;;;2.10;99.90;;;;;;4438738;32;20065;-64
2022/03/06 05:10:24;;;;;;;0.50;0.50;;;2.10;99.90;;;;;;4433113;32;20173;-64
2022/03/06 05:12:50;;;;;;;0.40;0.40;;;2.10;99.90;;;;;;4433782;32;20070;-64
2022/03/06 05:15:15;;;;;;;0.40;0.40;;;2.20;99.90;;;;;;4436754;32;20115;-64
2022/03/06 05:17:42;;;;;;;0.52;0.52;;;2.20;99.90;;;;;;4419559;32;20065;-64
2022/03/06 05:20:10;;;;;;;0.40;0.40;;;2.20;99.90;;;;;;4427120;32;20064;-64
2022/03/06 05:22:36;;;;;;;0.80;0.80;;;2.30;99.90;;;;;;4439465;32;20524;-64
2022/03/06 05:25:02;;;;;;;0.52;0.52;;;2.30;99.90;;;;;;4441890;32;20077;-63
2022/03/06 05:27:28;;;;;;;0.57;0.47;;;2.30;99.90;;;;;;4437989;32;20081;-64
2022/03/06 05:29:54;;;;;;;0.70;0.70;;;2.30;99.90;;;;;;4435849;32;20064;-64
2022/03/06 05:32:19;;;;;;;0.50;0.50;;;2.20;99.90;;;;;;4438011;32;20080;-64
2022/03/06 05:34:44;;;;;;;0.30;0.30;;;2.10;99.90;;;;;;4438092;32;20081;-64
2022/03/06 05:37:10;;;;;;;0.43;0.43;;;2.20;99.90;;;;;;4436303;32;20276;-64
2022/03/06 05:39:35;;;;;;;0.50;0.50;;;2.30;99.90;;;;;;4438913;32;20110;-64
2022/03/06 05:42:02;;;;;;;0.50;0.50;;;2.30;99.90;;;;;;4433434;32;20081;-64
2022/03/06 05:44:27;;;;;;;0.50;0.50;;;2.30;99.90;;;;;;4416636;32;20090;-64
2022/03/06 05:46:53;;;;;;;0.60;0.60;;;2.30;99.90;;;;;;4436123;32;20490;-64
2022/03/06 05:49:18;;;;;;;0.60;0.60;;;2.30;99.90;;;;;;4421561;32;20104;-64
2022/03/06 05:51:44;;;;;;;0.50;0.50;;;2.20;99.90;;;;;;4418487;32;20124;-64
2022/03/06 05:54:11;;;;;;;0.50;0.50;;;2.20;99.90;;;;;;4441711;32;20570;-64
2022/03/06 05:56:39;;;;;;;0.60;0.60;;;2.20;99.90;;;;;;4423371;32;20060;-64
2022/03/06 05:59:04;;;;;;;0.55;0.55;;;2.20;99.90;;;;;;4416318;32;20465;-64
2022/03/06 06:01:30;;;;;;;1.50;1.08;;;2.30;99.90;;;;;;4427420;32;20069;-64
2022/03/06 06:03:57;;;;;;;0.50;0.50;;;2.10;99.90;;;;;;4432685;32;20080;-64
2022/03/06 06:06:24;;;;;;;0.50;0.50;;;2.10;99.90;;;;;;4443982;32;20065;-64
2022/03/06 06:08:49;;;;;;;47.42;1.37;;;2.00;99.90;;;;;;4442005;32;20114;-64
2022/03/06 06:11:15;;;;;;;0.40;0.40;;;2.10;99.90;;;;;;4433200;32;20085;-64
2022/03/06 06:13:40;;;;;;;0.52;0.52;;;2.10;99.90;;;;;;4435851;32;20433;-64
2022/03/06 06:16:06;;;;;;;0.40;0.40;;;2.10;99.90;;;;;;4439346;32;20085;-64
2022/03/06 06:18:31;;;;;;;0.40;0.40;;;2.10;99.90;;;;;;4435361;32;20180;-64
2022/03/06 06:20:58;;;;;;;0.52;0.52;;;2.20;99.90;;;;;;4440403;32;20081;-63
2022/03/06 06:23:23;;;;;;;0.50;0.50;;;2.20;99.90;;;;;;4429274;32;20771;-64
2022/03/06 06:25:49;;;;;;;0.57;0.57;;;2.10;99.90;;;;;;4441014;32;20080;-64
2022/03/06 06:28:14;;;;;;;1.77;0.98;;;2.10;99.90;;;;;;4434072;32;20065;-64
2022/03/06 06:30:40;;;;;;;0.50;0.50;;;2.10;99.90;;;;;;4433856;32;20170;-64
2022/03/06 06:33:06;;;;;;;0.55;0.55;;;2.20;99.90;;;;;;4428524;32;20530;-64
2022/03/06 06:35:32;;;;;;;0.40;0.40;;;2.20;99.90;;;;;;4441518;32;20116;-64
2022/03/06 06:37:58;;;;;;;0.95;0.75;;;2.30;99.90;;;;;;4434236;32;20480;-64
2022/03/06 06:40:23;;;;;;;0.40;0.40;;;2.30;99.90;;;;;;4440377;32;20069;-64
2022/03/06 06:42:49;;;;;;;0.85;0.85;;;2.30;99.90;;;;;;4435984;32;20593;-64
2022/03/06 06:45:14;;;;;;;0.43;0.43;;;2.30;99.90;;;;;;4429571;32;20082;-64
2022/03/06 06:47:40;;;;;;;0.50;0.50;;;2.40;99.90;;;;;;4439641;32;20060;-62
2022/03/06 06:50:06;;;;;;;0.50;0.50;;;2.30;99.90;;;;;;4431046;32;20132;-64
2022/03/06 06:52:31;;;;;;;0.45;0.45;;;2.40;99.90;;;;;;4440878;32;20561;-64
2022/03/06 06:54:57;;;;;;;0.50;0.50;;;2.40;99.90;;;;;;4434440;32;20089;-64
2022/03/06 06:57:22;;;;;;;0.55;0.55;;;2.50;99.90;;;;;;4433694;32;20070;-61
2022/03/06 06:59:48;;;;;;;0.43;0.43;;;2.40;99.90;;;;;;4437798;32;20199;-64
2022/03/06 07:02:13;;;;;;;1.12;1.05;;;2.40;99.90;;;;;;4430088;32;20062;-64
2022/03/06 07:04:38;;;;;;;0.45;0.45;;;2.40;99.90;;;;;;4435911;32;20086;-64
2022/03/06 07:07:04;;;;;;;0.40;0.40;;;2.40;99.90;;;;;;4439285;32;20193;-64
2022/03/06 07:09:29;;;;;;;0.40;0.40;;;2.40;99.90;;;;;;4436224;32;20537;-64
2022/03/06 07:11:55;;;;;;;0.40;0.40;;;2.40;99.90;;;;;;4438558;32;20069;-64
2022/03/06 07:14:20;;;;;;;0.50;0.50;;;2.30;99.90;;;;;;4441473;32;20469;-64
2022/03/06 07:16:46;;;;;;;0.55;0.55;;;2.40;99.90;;;;;;4437411;32;20193;-64
2022/03/06 07:19:12;;;;;;;0.50;0.50;;;2.60;99.90;;;;;;4418280;32;20546;-64
2022/03/06 07:21:38;;;;;;;0.40;0.40;;;2.60;99.90;;;;;;4431684;32;20124;-64
2022/03/06 07:24:05;;;;;;;0.98;0.88;;;2.60;99.90;;;;;;4434573;32;20066;-64
2022/03/06 07:26:31;;;;;;;0.80;0.80;;;2.60;99.90;;;;;;4441484;32;20095;-64
2022/03/06 07:28:56;;;;;;;0.47;0.47;;;2.60;99.90;;;;;;4432386;32;20076;-64
2022/03/06 07:31:21;;;;;;;0.47;0.47;;;2.50;99.90;;;;;;4440115;32;20057;-64
2022/03/06 07:33:47;;;;;;;0.50;0.50;;;2.50;99.90;;;;;;4438487;32;110076;-64
2022/03/06 07:36:13;;;;;;;0.40;0.40;;;2.50;99.90;;;;;;4436838;32;20077;-64
2022/03/06 07:38:39;;;;;;;0.57;0.57;;;2.50;99.80;;;;;;4432327;32;20221;-64
2022/03/06 07:41:04;;;;;;;0.50;0.50;;;2.50;99.90;;;;;;4439246;32;20077;-64
2022/03/06 07:43:30;;;;;;;1.27;1.00;;;2.50;99.90;;;;;;4434179;32;20065;-64
2022/03/06 07:45:56;;;;;;;0.57;0.57;;;2.60;99.90;;;;;;4442388;32;20049;-64
2022/03/06 07:48:22;;;;;;;4.70;0.93;;;2.70;99.90;;;;;;4441705;32;20096;-62
2022/03/06 07:50:48;;;;;;;0.40;0.40;;;2.70;99.90;;;;;;4428220;32;20069;-64
2022/03/06 07:53:14;;;;;;;0.50;0.50;;;2.60;99.90;;;;;;4435252;32;20105;-64
2022/03/06 07:55:39;;;;;;;5.68;1.42;;;2.60;99.90;;;;;;4435669;32;20727;-64
2022/03/06 07:58:05;;;;;;;0.65;0.65;;;2.60;99.90;;;;;;4429184;32;20076;-65
2022/03/06 08:00:30;;;;;;;0.30;0.30;;;2.60;99.90;;;;;;4429940;32;20085;-65
2022/03/06 08:02:56;;;;;;;0.40;0.40;;;2.60;99.90;;;;;;4433052;32;20167;-65
2022/03/06 08:05:23;;;;;;;0.50;0.50;;;2.70;99.90;;;;;;4437827;32;20590;-64
2022/03/06 08:07:48;;;;;;;0.50;0.50;;;2.60;99.20;;;;;;4425848;32;20073;-64
2022/03/06 08:10:14;;;;;;;0.60;0.60;;;2.60;99.90;;;;;;4443424;32;20115;-64
2022/03/06 08:12:40;;;;;;;0.40;0.40;;;2.60;99.70;;;;;;4429316;32;20061;-64
2022/03/06 08:15:08;;;;;;;0.73;0.73;;;2.60;99.90;;;;;;4440297;32;20152;-64
2022/03/06 08:17:34;;;;;;;0.60;0.60;;;2.70;99.90;;;;;;4438615;32;20081;-64
2022/03/06 08:19:59;;;;;;;0.65;0.65;;;2.60;99.90;;;;;;4422358;32;20066;-64
2022/03/06 08:22:25;;;;;;;2.58;0.95;;;2.80;99.90;;;;;;4441843;32;20065;-64
2022/03/06 08:24:51;;;;;;;0.60;0.60;;;2.80;99.70;;;;;;4441571;32;20086;-64
2022/03/06 08:27:16;;;;;;;1.00;0.90;;;3.00;99.40;;;;;;4436003;32;20572;-64
2022/03/06 08:29:42;;;;;;;17.25;0.85;;;2.90;99.60;;;;;;4432210;32;21233;-64
2022/03/06 08:32:08;;;;;;;5.28;0.95;;;2.90;99.50;;;;;;4430821;32;20098;-64
2022/03/06 08:34:34;;;;;;;0.60;0.60;;;2.80;99.90;;;;;;4436687;32;20403;-65
2022/03/06 08:36:59;;;;;;;0.45;0.45;;;2.90;99.90;;;;;;4431435;32;20065;-64
2022/03/06 08:39:25;;;;;;;0.62;0.62;;;3.00;99.90;;;;;;4442410;32;20093;-64
2022/03/06 08:41:50;;;;;;;0.60;0.60;;;3.00;99.90;;;;;;4442275;32;20121;-63
2022/03/06 08:44:16;;;;;;;0.68;0.68;;;3.00;99.90;;;;;;4421396;32;20409;-64
2022/03/06 08:46:41;;;;;;;5.65;1.15;;;2.90;99.90;;;;;;4438836;32;20516;-64
2022/03/06 08:49:07;;;;;;;2.20;1.02;;;2.80;99.90;;;;;;4433916;32;21009;-64
2022/03/06 08:51:32;;;;;;;2.10;1.23;;;2.80;99.90;;;;;;4435639;32;20431;-64
2022/03/06 08:53:59;;;;;;;0.55;0.55;;;2.80;99.90;;;;;;4436175;32;20129;-64
2022/03/06 08:56:24;;;;;;;1.37;1.02;;;2.80;99.90;;;;;;4434165;32;20064;-62
2022/03/06 08:58:50;;;;;;;0.45;0.45;;;2.90;99.90;;;;;;4437233;32;20108;-64
2022/03/06 09:01:16;;;;;;;0.47;0.47;;;2.90;99.90;;;;;;4435564;32;20151;-64
2022/03/06 09:03:42;;;;;;;0.98;0.93;;;2.90;99.90;;;;;;4438534;32;20065;-64
2022/03/06 09:06:07;;;;;;;0.40;0.40;;;2.80;99.90;;;;;;4431409;32;20702;-65
2022/03/06 09:08:33;;;;;;;0.75;0.75;;;2.80;99.90;;;;;;4442916;32;20065;-65
2022/03/06 09:10:58;;;;;;;0.70;0.70;;;2.90;99.90;;;;;;4436467;32;20077;-65
2022/03/06 09:13:24;;;;;;;0.50;0.50;;;3.00;99.90;;;;;;4428496;32;20076;-65
2022/03/06 09:15:49;;;;;;;0.43;0.43;;;3.00;99.90;;;;;;4440517;32;20086;-65
2022/03/06 09:18:15;;;;;;;0.80;0.80;;;3.10;99.90;;;;;;4430243;32;20094;-65
2022/03/06 09:20:40;;;;;;;0.40;0.40;;;3.10;99.90;;;;;;4437316;32;20157;-65
2022/03/06 09:23:08;;;;;;;0.77;0.77;;;3.20;99.90;;;;;;4442798;32;20509;-65
2022/03/06 09:25:34;;;;;;;0.40;0.40;;;3.40;99.90;;;;;;4441765;32;20086;-64
2022/03/06 09:28:00;;;;;;;1.10;1.00;;;3.30;99.90;;;;;;4441306;32;20061;-64
2022/03/06 09:30:26;;;;;;;9.85;1.25;;;3.20;99.90;;;;;;4427121;32;20081;-64
2022/03/06 09:32:52;;;;;;;0.40;0.40;;;3.10;99.90;;;;;;4427918;32;20068;-65
2022/03/06 09:35:17;;;;;;;0.50;0.50;;;3.10;99.90;;;;;;4432421;32;20065;-63
2022/03/06 09:37:43;;;;;;;0.82;0.82;;;3.30;99.90;;;;;;4433520;32;20076;-65
2022/03/06 09:40:09;;;;;;;0.40;0.40;;;3.30;99.90;;;;;;4438514;32;20298;-65
2022/03/06 09:42:35;;;;;;;0.37;0.37;;;3.30;99.90;;;;;;4433254;32;20057;-65
2022/03/06 09:45:05;;;;;;;0.75;0.75;;;3.40;99.90;;;;;;4441134;32;20076;-65
2022/03/06 09:47:32;;;;;;;0.55;0.55;;;3.40;99.90;;;;;;4436206;32;20114;-65
2022/03/06 09:49:58;;;;;;;3.10;1.83;;;3.40;99.90;;;;;;4432985;32;20089;-65
2022/03/06 09:52:23;;;;;;;0.40;0.40;;;3.50;99.90;;;;;;4429433;32;20706;-64
2022/03/06 09:54:49;;;;;;;0.50;0.50;;;3.60;99.90;;;;;;4443723;32;20077;-65
2022/03/06 09:57:19;;;;;;;0.50;0.50;;;3.80;99.90;;;;;;4441466;32;20607;-64
2022/03/06 09:59:45;;;;;;;0.50;0.50;;;3.60;99.90;;;;;;4418960;32;20804;-63
2022/03/06 10:02:11;;;;;;;0.50;0.50;;;3.70;99.90;;;;;;4434727;32;20125;-63
2022/03/06 10:04:38;;;;;;;0.57;0.57;;;3.60;99.90;;;;;;4428593;32;20077;-63
2022/03/06 10:07:13;;;;;;;0.52;0.52;;;3.50;99.90;;;;;;4430456;32;20053;-63
2022/03/06 10:09:47;;;;;;;0.50;0.50;;;3.40;99.90;;;;;;4427995;32;20081;-63
2022/03/06 10:12:22;;;;;;;0.90;0.85;;;3.30;99.90;;;;;;4428014;32;20111;-63
2022/03/06 10:14:49;;;;;;;0.68;0.68;;;3.50;99.90;;;;;;4426727;32;20077;-63
2022/03/06 10:17:18;;;;;;;0.62;0.62;;;3.60;99.90;;;;;;4441461;32;20469;-63
2022/03/06 10:19:52;;;;;;;0.50;0.50;;;3.60;99.90;;;;;;4441090;32;20076;-63
2022/03/06 10:22:20;;;;;;;1.20;0.80;;;3.60;99.90;;;;;;4442415;32;20138;-63
2022/03/06 10:24:47;;;;;;;0.82;0.82;;;3.60;99.90;;;;;;4427321;32;20065;-63
2022/03/06 10:27:12;;;;;;;0.50;0.50;;;3.50;99.90;;;;;;4444070;32;20540;-63
2022/03/06 10:29:39;;;;;;;0.50;0.50;;;3.50;99.90;;;;;;4440271;32;20161;-63
2022/03/06 10:32:07;;;;;;;4.78;1.60;;;3.40;99.90;;;;;;4425309;32;20509;-63
2022/03/06 10:34:35;;;;;;;0.40;0.40;;;3.50;99.90;;;;;;4442989;32;20073;-65
2022/03/06 10:37:02;;;;;;;0.60;0.60;;;3.50;99.90;;;;;;4442792;32;20093;-64
2022/03/06 10:39:27;;;;;;;0.50;0.50;;;3.60;99.90;;;;;;4443325;32;20073;-64
2022/03/06 10:41:54;;;;;;;0.93;0.93;;;3.50;99.90;;;;;;4436585;32;20089;-63
2022/03/06 10:44:21;;;;;;;0.60;0.60;;;3.60;99.90;;;;;;4432942;32;20160;-64
2022/03/06 10:47:07;;;;;;;0.57;0.57;;;3.60;99.90;;;;;;4425385;32;20129;-64
2022/03/06 10:49:33;;;;;;;1.73;0.55;;;3.60;99.90;;;;;;4428719;32;20123;-64
2022/03/06 10:52:14;;;;;;;0.50;0.50;;;3.70;99.90;;;;;;4421026;32;20115;-64
2022/03/06 10:54:50;;;;;;;0.50;0.50;;;3.60;99.90;;;;;;4429383;32;20094;-64
2022/03/06 10:57:15;;;;;;;0.93;0.93;;;3.60;99.90;;;;;;4432797;32;20410;-63
2022/03/06 10:59:42;;;;;;;0.95;0.88;;;3.70;99.90;;;;;;4442455;32;20116;-64
2022/03/06 11:02:11;;;;;;;0.30;0.30;;;3.60;99.90;;;;;;4436835;32;20073;-64
2022/03/06 11:04:37;;;;;;;0.80;0.80;;;3.60;99.90;;;;;;4434165;32;20752;-64
2022/03/06 11:07:03;;;;;;;0.40;0.40;;;3.70;99.90;;;;;;4437442;32;20053;-64
2022/03/06 11:09:30;;;;;;;0.45;0.45;;;3.80;99.90;;;;;;4437104;32;20670;-64
2022/03/06 11:11:56;;;;;;;0.60;0.60;;;3.90;99.90;;;;;;4437703;32;20169;-63
2022/03/06 11:14:22;;;;;;;0.70;0.70;;;3.80;99.90;;;;;;4443359;32;20073;-64
2022/03/06 11:16:48;;;;;;;0.70;0.70;;;3.90;99.90;;;;;;4437286;32;20077;-63
2022/03/06 11:19:13;;;;;;;0.50;0.50;;;3.90;99.90;;;;;;4429278;32;20065;-64
2022/03/06 11:21:41;;;;;;;0.43;0.43;;;3.80;99.50;;;;;;4441101;32;20551;-64
2022/03/06 11:24:19;;;;;;;0.60;0.60;;;3.80;99.90;;;;;;4440753;32;20081;-64
2022/03/06 11:27:19;;;;;;;0.50;0.50;;;3.80;99.90;;;;;;4436916;32;20844;-64
2022/03/06 11:30:07;;;;;;;0.73;0.68;;;3.60;99.80;;;;;;4426856;32;20077;-64
2022/03/06 11:32:35;;;;;;;1.85;1.23;;;3.70;99.90;;;;;;4430432;32;20112;-64
2022/03/06 11:35:12;;;;;;;0.40;0.40;;;3.70;99.80;;;;;;4428271;32;20100;-64
2022/03/06 11:37:50;;;;;;;0.57;0.57;;;3.80;99.30;;;;;;4433250;32;20092;-64
2022/03/06 11:40:40;;;;;;;0.57;0.57;;;3.80;99.00;;;;;;4414746;32;20127;-64
2022/03/06 11:43:08;;;;;;;0.73;0.73;;;3.80;99.10;;;;;;4433090;32;20068;-63
2022/03/06 11:45:52;;;;;;;0.88;0.85;;;3.80;98.50;;;;;;4415276;32;20078;-64
2022/03/06 11:48:35;;;;;;;0.65;0.65;;;3.60;99.20;;;;;;4442675;32;20085;-65
2022/03/06 11:51:26;;;;;;;0.30;0.30;;;3.80;99.70;;;;;;4435821;32;20076;-64
2022/03/06 11:53:55;;;;;;;0.40;0.40;;;3.90;98.80;;;;;;4434703;32;20355;-64
2022/03/06 11:56:42;;;;;;;0.40;0.40;;;3.90;98.60;;;;;;4423687;32;20078;-64
2022/03/06 11:59:22;;;;;;;0.50;0.50;;;4.00;98.20;;;;;;4422733;32;20087;-64
2022/03/06 12:01:50;;;;;;;1.52;1.42;;;3.90;97.30;;;;;;4426108;32;20101;-64
2022/03/06 12:04:18;;;;;;;0.55;0.55;;;3.80;97.20;;;;;;4441544;32;20536;-64
2022/03/06 12:06:48;;;;;;;0.40;0.40;;;3.70;97.90;;;;;;4442707;32;20077;-64
2022/03/06 12:09:18;;;;;;;0.65;0.62;;;3.70;97.30;;;;;;4430650;32;20069;-64
2022/03/06 12:11:45;;;;;;;0.30;0.30;;;3.70;97.40;;;;;;4428928;32;20508;-64
2022/03/06 12:14:20;;;;;;;3.20;1.20;;;3.80;97.80;;;;;;4431311;32;20549;-64
2022/03/06 12:17:04;;;;;;;0.40;0.40;;;4.00;99.00;;;;;;4438818;32;20082;-64
2022/03/06 12:19:31;;;;;;;0.50;0.50;;;4.20;97.20;;;;;;4436427;32;20573;-64
2022/03/06 12:22:15;;;;;;;0.50;0.50;;;4.30;96.50;;;;;;4428857;32;20434;-64
2022/03/06 12:24:44;;;;;;;0.40;0.40;;;4.20;96.00;;;;;;4436434;32;20507;-65
2022/03/06 12:27:11;;;;;;;0.60;0.60;;;4.30;97.40;;;;;;4427706;32;20441;-64
2022/03/06 12:29:57;;;;;;;0.50;0.50;;;4.40;95.60;;;;;;4443066;32;20116;-64
2022/03/06 12:32:28;;;;;;;0.50;0.50;;;4.40;95.40;;;;;;4417806;32;20061;-64
2022/03/06 12:35:04;;;;;;;1.95;0.95;;;4.40;96.20;;;;;;4441550;32;20564;-64
2022/03/06 12:37:35;;;;;;;0.40;0.40;;;4.50;95.60;;;;;;4441498;32;20081;-64
2022/03/06 12:40:04;;;;;;;3.78;1.17;;;4.50;95.70;;;;;;4430952;32;20401;-64
2022/03/06 12:42:32;;;;;;;1.40;0.75;;;4.40;94.90;;;;;;4419232;32;20090;-64
2022/03/06 12:45:00;;;;;;;0.50;0.50;;;4.30;95.30;;;;;;4435068;32;20089;-63
2022/03/06 12:47:28;;;;;;;0.50;0.50;;;4.20;95.20;;;;;;4422280;32;20573;-64
2022/03/06 12:49:54;;;;;;;0.40;0.40;;;4.30;95.70;;;;;;4441182;32;20069;-64
2022/03/06 12:52:22;;;;;;;0.32;0.32;;;4.40;96.20;;;;;;4443720;32;20513;-64
2022/03/06 12:54:49;;;;;;;3.12;1.40;;;4.50;95.40;;;;;;4434329;32;20089;-64
2022/03/06 12:57:15;;;;;;;0.50;0.50;;;4.50;95.40;;;;;;4436021;32;20089;-64